Terminal Aerodrome Forecast
Issued by NWS

Home | Current Version | Previous Version | Text Only | Print | Product List | Glossary On
Versions: 1 2 3 4 5 6 7 8 9 10 11 12 13
000
FTUS42 TJSJ 260544
TAFKPK
TAF
TKPK 260544Z 2606/2706 07008KT P6SM VCSH SCT018 SCT020
     FM261400 09013KT P6SM VCSH FEW018 SCT020 SCT035
     FM262200 08010KT P6SM VCSH SCT018
      AMD NOT SKED TIL 261100=

USA.gov is the U.S. government's official web portal to all federal, state and local government web resources and services.